Time;durP1;ratioP1;P1;durP2;ratioP2;P2;SDS_P1;SDS_P2;PMS_P1;PMS_P2;Temp;Humidity;BMP_temperature;BMP_pressure;BME280_temperature;BME280_humidity;BME280_pressure;Samples;Min_cycle;Max_cycle;Signal;HPM_P1;HPM_P2
2022/01/11 00:00:15;;;;;;;47.55;22.83;;;;;;;1.75;80.92;102811.50;3595549;39;20398;-62
2022/01/11 00:02:44;;;;;;;39.95;21.98;;;;;;;1.71;80.18;102814.97;3595843;39;20059;-62
2022/01/11 00:05:31;;;;;;;45.40;23.45;;;;;;;1.72;80.67;102827.38;3596648;39;20060;-62
2022/01/11 00:07:57;;;;;;;38.75;22.63;;;;;;;1.73;81.46;102829.13;3589724;39;20044;-63
2022/01/11 00:10:30;;;;;;;43.40;23.02;;;;;;;1.75;81.60;102827.41;3600842;39;20046;-62
2022/01/11 00:12:59;;;;;;;40.33;21.48;;;;;;;1.75;80.66;102843.31;3595009;39;20048;-62
2022/01/11 00:15:28;;;;;;;43.45;21.10;;;;;;;1.43;81.12;102797.97;3597709;39;20048;-63
2022/01/11 00:17:56;;;;;;;41.08;21.73;;;;;;;1.75;81.02;102856.56;3593835;39;20370;-62
2022/01/11 00:20:23;;;;;;;42.78;22.52;;;;;;;1.76;80.70;102855.69;3601739;39;20091;-62
2022/01/11 00:25:42;;;;;;;44.78;22.80;;;;;;;1.74;80.60;102846.81;3585920;39;20047;-63
2022/01/11 00:28:10;;;;;;;46.35;22.23;;;;;;;1.71;81.04;102849.44;3595158;39;20039;-62
2022/01/11 00:30:39;;;;;;;45.30;23.45;;;;;;;1.65;80.62;102830.84;3596782;39;20060;-63
2022/01/11 00:33:12;;;;;;;46.80;22.27;;;;;;;1.72;80.56;102846.81;3598951;39;20156;-62
2022/01/11 00:35:43;;;;;;;44.50;23.05;;;;;;;1.75;81.24;102841.53;3588315;39;20165;-62
2022/01/11 00:38:15;;;;;;;46.60;22.75;;;;;;;1.76;81.55;102839.78;3584785;40;20051;-62
2022/01/11 00:40:59;;;;;;;44.45;23.13;;;;;;;1.72;81.23;102840.63;3584863;40;20056;-63
2022/01/11 00:43:28;;;;;;;50.55;23.67;;;;;;;1.72;80.93;102838.88;3584129;40;20060;-62
2022/01/11 00:45:55;;;;;;;46.92;24.15;;;;;;;1.75;80.88;102841.53;3586936;40;20370;-63
2022/01/11 00:48:22;;;;;;;48.50;23.08;;;;;;;1.75;81.76;102836.25;3594171;39;20442;-62
2022/01/11 00:50:50;;;;;;;49.25;24.48;;;;;;;1.78;80.41;102832.72;3597927;39;20071;-62
2022/01/11 00:53:18;;;;;;;48.22;23.73;;;;;;;1.80;81.31;102838.91;3584057;40;20049;-63
2022/01/11 00:55:47;;;;;;;48.40;23.90;;;;;;;1.80;81.03;102831.84;3584304;40;20052;-62
2022/01/11 00:58:13;;;;;;;51.85;23.83;;;;;;;1.79;80.68;102835.38;3590080;39;20699;-63
2022/01/11 01:00:38;;;;;;;44.65;23.02;;;;;;;1.82;80.83;102826.56;3603782;39;20363;-63
2022/01/11 01:03:05;;;;;;;58.15;28.00;;;;;;;1.84;81.20;102830.13;3599076;39;20045;-62
2022/01/11 01:05:32;;;;;;;51.30;25.65;;;;;;;1.83;80.83;102830.97;3588237;39;20064;-62
2022/01/11 01:07:59;;;;;;;50.55;24.10;;;;;;;1.69;81.08;102806.16;3587164;40;20137;-62
2022/01/11 01:10:26;;;;;;;50.28;23.80;;;;;;;1.66;81.30;102806.13;3592943;39;20146;-63
2022/01/11 01:12:57;;;;;;;51.80;24.73;;;;;;;1.82;80.66;102842.47;3593330;39;20145;-62
2022/01/11 01:15:26;;;;;;;54.65;25.13;;;;;;;1.84;80.71;102846.03;3587160;40;20064;-62
2022/01/11 01:17:53;;;;;;;54.33;25.55;;;;;;;1.83;81.22;102845.13;3584011;40;20052;-63
2022/01/11 01:20:20;;;;;;;56.13;24.83;;;;;;;1.83;80.43;102846.88;3586888;39;20322;-62
2022/01/11 01:22:50;;;;;;;55.28;24.65;;;;;;;1.81;80.80;102843.34;3599215;39;20057;-62
2022/01/11 01:25:23;;;;;;;61.55;26.80;;;;;;;1.80;80.42;102846.84;3598337;39;20370;-62
2022/01/11 01:27:51;;;;;;;54.78;26.23;;;;;;;1.85;80.77;102846.03;3595281;39;20043;-62
2022/01/11 01:30:18;;;;;;;54.33;24.52;;;;;;;1.85;80.78;102834.53;3595508;39;20056;-63
2022/01/11 01:32:45;;;;;;;57.63;25.80;;;;;;;1.85;81.28;102843.38;3585830;39;20967;-62
2022/01/11 01:35:12;;;;;;;53.08;24.15;;;;;;;1.84;80.55;102848.69;3598148;39;20099;-62
2022/01/11 01:37:38;;;;;;;57.22;25.00;;;;;;;1.86;80.97;102853.09;3594979;39;20360;-62
2022/01/11 01:40:07;;;;;;;56.35;25.45;;;;;;;1.80;80.91;102842.44;3602468;39;20058;-62
2022/01/11 01:42:34;;;;;;;59.45;28.00;;;;;;;1.82;81.03;102848.66;3595075;39;20060;-62
2022/01/11 01:45:02;;;;;;;56.78;27.23;;;;;;;1.80;80.47;102847.75;3601526;39;20283;-62
2022/01/11 01:47:28;;;;;;;54.28;25.77;;;;;;;1.80;80.80;102844.22;3595885;39;20048;-63
2022/01/11 01:49:54;;;;;;;55.35;24.08;;;;;;;1.80;80.87;102846.84;3600477;39;20055;-62
2022/01/11 01:52:20;;;;;;;54.17;23.98;;;;;;;1.79;80.13;102839.78;3590518;39;20101;-62
2022/01/11 01:54:45;;;;;;;51.35;25.13;;;;;;;1.75;80.09;102844.19;3593781;39;20063;-62
2022/01/11 01:57:12;;;;;;;55.03;23.30;;;;;;;1.74;81.01;102838.88;3599335;39;20132;-62
2022/01/11 01:59:37;;;;;;;51.67;25.05;;;;;;;1.73;79.98;102845.94;3591029;39;20455;-63
2022/01/11 02:02:07;;;;;;;51.22;24.08;;;;;;;1.72;80.88;102848.59;3584915;40;20044;-62
2022/01/11 02:04:33;;;;;;;47.40;22.98;;;;;;;1.70;80.02;102855.63;3594491;39;20049;-62
2022/01/11 02:06:58;;;;;;;46.97;22.33;;;;;;;1.70;80.53;102860.94;3593908;39;20377;-62
2022/01/11 02:09:24;;;;;;;50.67;24.10;;;;;;;1.69;80.80;102864.47;3593149;39;20078;-62
2022/01/11 02:11:50;;;;;;;49.90;23.50;;;;;;;1.70;80.03;102860.94;3589066;39;20063;-62
2022/01/11 02:14:16;;;;;;;48.42;21.63;;;;;;;1.73;80.09;102875.09;3591370;39;20078;-62
2022/01/11 02:16:41;;;;;;;50.67;24.38;;;;;;;1.67;80.50;102864.44;3589452;39;20134;-63
2022/01/11 02:19:07;;;;;;;53.60;23.90;;;;;;;1.52;80.58;102843.09;3587237;40;20298;-62
2022/01/11 02:21:33;;;;;;;52.33;23.95;;;;;;;1.63;80.63;102863.53;3584074;40;20134;-62
2022/01/11 02:23:59;;;;;;;53.90;22.98;;;;;;;1.63;80.14;102876.78;3583595;40;20067;-63
2022/01/11 02:26:26;;;;;;;51.55;23.85;;;;;;;1.34;80.27;102830.63;3583692;40;20064;-62
2022/01/11 02:28:53;;;;;;;51.05;23.80;;;;;;;1.66;80.10;102883.88;3584035;40;20048;-62
2022/01/11 02:31:20;;;;;;;53.67;24.40;;;;;;;1.64;79.89;102877.66;3583146;40;20080;-62
2022/01/11 02:33:54;;;;;;;47.00;23.58;;;;;;;1.63;79.99;102879.44;3587149;40;20048;-62
2022/01/11 02:36:25;;;;;;;48.40;23.30;;;;;;;1.66;80.61;102883.00;3585942;40;20092;-62
2022/01/11 02:38:54;;;;;;;47.13;22.40;;;;;;;1.63;80.54;102881.22;3586579;40;20049;-62
2022/01/11 02:41:21;;;;;;;47.67;23.73;;;;;;;1.63;80.40;102887.38;3589022;40;20056;-63
2022/01/11 02:43:49;;;;;;;53.22;24.58;;;;;;;1.63;80.27;102898.00;3593482;39;20047;-62
2022/01/11 02:46:21;;;;;;;54.30;24.40;;;;;;;1.66;79.54;102901.56;3594754;39;20070;-62
2022/01/11 02:48:50;;;;;;;52.42;24.08;;;;;;;1.53;80.66;102877.59;3603472;39;20088;-63
2022/01/11 02:51:17;;;;;;;49.78;23.30;;;;;;;1.61;80.08;102896.19;3595355;39;20059;-62
2022/01/11 02:53:50;;;;;;;50.17;23.70;;;;;;;1.60;80.84;102897.09;3600574;39;20053;-62
2022/01/11 02:56:18;;;;;;;56.60;24.50;;;;;;;1.56;80.05;102890.88;3596623;39;20047;-63
2022/01/11 02:58:45;;;;;;;51.08;24.33;;;;;;;1.57;80.10;102905.00;3602547;39;20120;-63
2022/01/11 03:01:11;;;;;;;52.92;25.25;;;;;;;1.53;80.49;102908.50;3596918;39;20047;-62
2022/01/11 03:03:38;;;;;;;57.35;24.83;;;;;;;1.54;80.40;102913.81;3593952;39;20055;-62
2022/01/11 03:06:05;;;;;;;54.08;24.85;;;;;;;1.59;79.73;102917.41;3587795;39;20052;-63
2022/01/11 03:08:42;;;;;;;51.25;23.33;;;;;;;1.58;79.31;102905.00;3601480;39;20372;-63
2022/01/11 03:11:12;;;;;;;52.22;24.42;;;;;;;1.58;80.53;102902.34;3590638;39;20096;-62
2022/01/11 03:13:40;;;;;;;45.88;22.90;;;;;;;1.56;80.28;102911.19;3584932;40;20056;-62
2022/01/11 03:16:07;;;;;;;50.50;24.40;;;;;;;1.57;79.95;102918.25;3597287;39;20033;-62
2022/01/11 03:18:33;;;;;;;50.92;24.13;;;;;;;1.58;79.95;102910.31;3596746;39;20048;-62
2022/01/11 03:20:59;;;;;;;49.75;23.27;;;;;;;1.54;79.98;102916.47;3585258;40;20318;-63
2022/01/11 03:23:25;;;;;;;49.13;22.52;;;;;;;1.49;79.94;102914.63;3585052;40;20066;-62
2022/01/11 03:25:52;;;;;;;46.60;23.58;;;;;;;1.51;79.49;102908.47;3585237;40;20096;-62
2022/01/11 03:28:23;;;;;;;49.42;23.02;;;;;;;1.51;80.31;102908.47;3584988;40;20361;-63
2022/01/11 03:30:52;;;;;;;51.53;25.13;;;;;;;1.51;79.13;102904.94;3585171;40;20272;-63
2022/01/11 03:33:19;;;;;;;48.67;24.05;;;;;;;1.49;80.61;102904.03;3584753;40;20048;-63
2022/01/11 03:35:44;;;;;;;50.97;24.42;;;;;;;1.52;79.98;102899.69;3585093;40;20199;-62
2022/01/11 03:38:14;;;;;;;51.95;25.70;;;;;;;1.50;79.61;102905.84;3595810;39;20375;-62
2022/01/11 03:40:42;;;;;;;53.47;24.67;;;;;;;1.50;80.13;102906.72;3578676;40;20055;-63
2022/01/11 03:43:10;;;;;;;52.50;23.67;;;;;;;1.49;79.30;102901.38;3585678;40;20044;-62
2022/01/11 03:45:36;;;;;;;45.00;22.90;;;;;;;1.49;79.74;102898.72;3584762;40;20088;-63
2022/01/11 03:48:06;;;;;;;46.85;21.60;;;;;;;1.50;80.42;102893.47;3585124;40;20345;-63
2022/01/11 03:50:32;;;;;;;44.88;22.63;;;;;;;1.45;79.50;102894.28;3584814;40;20088;-62
2022/01/11 03:53:06;;;;;;;46.58;23.52;;;;;;;1.50;80.70;102900.53;3592046;40;20051;-63
2022/01/11 03:55:59;;;;;;;40.08;22.55;;;;;;;1.58;79.42;102894.41;3577480;40;20056;-63
2022/01/11 03:58:29;;;;;;;50.22;23.88;;;;;;;1.50;79.16;102895.22;3585039;40;20060;-63
2022/01/11 04:00:57;;;;;;;49.40;23.83;;;;;;;1.44;79.17;102901.34;3590372;39;20397;-63
2022/01/11 04:03:23;;;;;;;42.35;22.42;;;;;;;1.44;78.96;102911.06;3591372;39;20367;-63
2022/01/11 04:05:49;;;;;;;49.97;24.65;;;;;;;1.42;79.14;102899.56;3592258;39;20052;-63
2022/01/11 04:08:15;;;;;;;42.75;21.52;;;;;;;1.36;79.25;102903.03;3597559;39;21489;-62
2022/01/11 04:10:41;;;;;;;48.72;22.63;;;;;;;1.37;79.19;102912.78;3603618;39;20062;-63
2022/01/11 04:13:06;;;;;;;47.60;23.52;;;;;;;1.34;80.34;102915.41;3594496;39;20058;-62
2022/01/11 04:15:32;;;;;;;52.45;24.35;;;;;;;1.11;79.24;102889.56;3588005;39;20121;-62
2022/01/11 04:17:58;;;;;;;46.90;24.58;;;;;;;1.27;79.18;102914.44;3599904;39;20370;-62
2022/01/11 04:20:24;;;;;;;47.10;22.83;;;;;;;1.26;80.50;102919.72;3598757;39;20056;-63
2022/01/11 04:22:51;;;;;;;39.47;21.40;;;;;;;1.23;79.44;102920.56;3600538;39;20059;-62
2022/01/11 04:25:18;;;;;;;47.90;23.40;;;;;;;1.27;79.66;102914.44;3599350;39;20117;-63
2022/01/11 04:27:44;;;;;;;41.83;22.90;;;;;;;1.31;80.18;102904.78;3589357;39;20052;-62
2022/01/11 04:30:12;;;;;;;45.30;22.65;;;;;;;1.16;79.44;102889.59;3593810;39;20304;-62
2022/01/11 04:32:38;;;;;;;47.63;23.88;;;;;;;1.30;79.70;102918.88;3590798;39;20051;-62
2022/01/11 04:35:04;;;;;;;47.53;23.25;;;;;;;1.30;80.02;102924.16;3598258;39;20047;-61
2022/01/11 04:37:30;;;;;;;47.60;23.75;;;;;;;1.30;79.68;102930.38;3594598;39;20056;-63
2022/01/11 04:39:55;;;;;;;43.33;22.83;;;;;;;1.29;79.35;102927.69;3590217;39;20088;-63
2022/01/11 04:42:21;;;;;;;42.03;22.70;;;;;;;1.24;78.66;102925.00;3584234;40;20067;-62
2022/01/11 04:44:47;;;;;;;51.67;23.40;;;;;;;1.24;79.24;102926.75;3585301;40;20063;-62
2022/01/11 04:47:12;;;;;;;44.80;24.08;;;;;;;1.22;79.49;102931.16;3589051;40;20390;-62
2022/01/11 04:49:38;;;;;;;48.00;24.30;;;;;;;1.20;79.88;102927.59;3584918;40;20363;-62
2022/01/11 04:52:04;;;;;;;46.47;23.58;;;;;;;1.15;79.89;102931.09;3584093;40;20064;-62
2022/01/11 04:54:30;;;;;;;41.20;23.15;;;;;;;1.13;80.24;102924.88;3585591;39;20383;-62
2022/01/11 04:56:55;;;;;;;44.42;23.40;;;;;;;1.08;79.11;102923.03;3599149;39;20051;-63
2022/01/11 04:59:21;;;;;;;48.72;23.40;;;;;;;1.08;79.18;102931.91;3588727;39;20074;-62
2022/01/11 05:01:47;;;;;;;46.63;23.77;;;;;;;1.09;80.07;102924.84;3584670;40;20048;-63
2022/01/11 05:04:14;;;;;;;44.63;23.10;;;;;;;1.04;79.15;102915.94;3584226;40;20048;-62
2022/01/11 05:06:39;;;;;;;44.17;23.85;;;;;;;1.01;80.03;102914.13;3588482;39;20047;-62
2022/01/11 05:09:05;;;;;;;49.58;24.40;;;;;;;1.01;80.24;102915.91;3593368;39;20068;-62
2022/01/11 05:11:30;;;;;;;47.97;24.48;;;;;;;0.99;80.60;102920.31;3584558;40;20276;-62
2022/01/11 05:13:57;;;;;;;46.45;24.65;;;;;;;0.60;80.31;102856.34;3592322;39;20047;-63
2022/01/11 05:16:23;;;;;;;46.47;24.10;;;;;;;0.87;79.43;102908.69;3597959;39;20068;-62
2022/01/11 05:18:48;;;;;;;50.35;25.40;;;;;;;0.92;80.23;102917.59;3583985;40;20056;-63
2022/01/11 05:21:14;;;;;;;48.22;24.92;;;;;;;0.89;80.38;102919.31;3585738;39;20060;-62
2022/01/11 05:23:40;;;;;;;54.95;26.38;;;;;;;0.90;80.18;102919.31;3595137;39;20163;-62
2022/01/11 05:26:06;;;;;;;50.75;25.83;;;;;;;0.88;79.91;102914.88;3595600;39;20055;-62
2022/01/11 05:28:34;;;;;;;57.08;26.20;;;;;;;0.87;80.13;102913.09;3595861;39;20084;-62
2022/01/11 05:31:01;;;;;;;50.75;25.70;;;;;;;0.80;79.64;102895.38;3589022;39;20048;-62
2022/01/11 05:33:27;;;;;;;53.88;26.25;;;;;;;0.81;80.47;102905.09;3591100;39;20072;-62
2022/01/11 05:35:53;;;;;;;52.63;26.63;;;;;;;0.81;80.29;102908.63;3599904;39;20086;-62
2022/01/11 05:38:18;;;;;;;53.17;26.25;;;;;;;0.80;80.29;102909.50;3594371;39;20393;-61
2022/01/11 05:40:44;;;;;;;52.97;25.52;;;;;;;0.77;79.64;102908.59;3592523;39;20047;-62
2022/01/11 05:43:12;;;;;;;62.00;27.83;;;;;;;0.81;80.80;102907.75;3593269;39;20311;-62
2022/01/11 05:45:38;;;;;;;55.20;26.25;;;;;;;0.80;80.09;102909.50;3594617;39;20058;-62
2022/01/11 05:48:04;;;;;;;58.03;26.10;;;;;;;0.79;80.99;102912.13;3596184;39;20305;-62
2022/01/11 05:50:31;;;;;;;53.53;25.75;;;;;;;0.84;80.82;102923.66;3589456;39;20287;-62
2022/01/11 05:52:57;;;;;;;54.70;26.48;;;;;;;0.85;79.34;102917.50;3596695;39;20051;-62
2022/01/11 05:55:23;;;;;;;50.80;24.58;;;;;;;0.87;79.38;102913.09;3586501;39;20080;-61
2022/01/11 05:57:49;;;;;;;48.83;24.15;;;;;;;0.86;80.18;102916.63;3590143;39;20362;-62
2022/01/11 06:00:19;;;;;;;48.22;24.58;;;;;;;0.86;79.92;102924.59;3592078;39;20048;-62
2022/01/11 06:02:48;;;;;;;51.85;25.45;;;;;;;0.88;80.07;102930.75;3586688;39;20052;-62
2022/01/11 06:05:16;;;;;;;51.38;23.08;;;;;;;0.88;79.10;102934.28;3584565;39;20056;-62
2022/01/11 06:07:42;;;;;;;51.95;24.38;;;;;;;0.87;79.11;102944.88;3583964;39;20435;-62
2022/01/11 06:10:08;;;;;;;52.30;24.42;;;;;;;0.86;78.93;102944.00;3585008;39;20060;-62
2022/01/11 06:12:34;;;;;;;48.80;25.30;;;;;;;0.87;78.83;102958.13;3583764;39;20507;-62
2022/01/11 06:14:59;;;;;;;52.35;24.08;;;;;;;0.91;79.49;102952.88;3585301;39;20068;-62
2022/01/11 06:17:25;;;;;;;44.63;23.40;;;;;;;0.89;79.33;102953.75;3585776;39;20077;-62
2022/01/11 06:19:51;;;;;;;47.22;24.95;;;;;;;0.87;78.44;102955.47;3585981;39;20299;-62
2022/01/11 06:22:16;;;;;;;44.88;22.10;;;;;;;0.86;78.62;102964.28;3584591;40;20048;-62
2022/01/11 06:24:42;;;;;;;47.25;23.15;;;;;;;0.87;78.45;102966.06;3585560;40;20295;-61
2022/01/11 06:27:07;;;;;;;42.95;21.65;;;;;;;0.85;78.72;102968.66;3585486;40;20091;-62
2022/01/11 06:29:33;;;;;;;43.25;21.40;;;;;;;0.86;79.22;102974.88;3587175;40;20394;-62
2022/01/11 06:31:58;;;;;;;44.03;22.02;;;;;;;0.86;78.57;102974.88;3584631;39;20047;-63
2022/01/11 06:34:24;;;;;;;40.17;20.98;;;;;;;0.84;77.86;102976.59;3585816;39;20064;-62
2022/01/11 06:36:50;;;;;;;43.97;22.48;;;;;;;0.83;78.44;102986.31;3590124;39;20117;-61
2022/01/11 06:39:15;;;;;;;44.90;22.92;;;;;;;0.82;78.54;102986.28;3587391;39;20317;-61
2022/01/11 06:41:42;;;;;;;44.83;22.20;;;;;;;0.81;78.94;102981.88;3587749;40;20056;-62
2022/01/11 06:44:09;;;;;;;43.75;22.92;;;;;;;0.78;79.47;102976.53;3587033;40;20311;-61
2022/01/11 06:46:35;;;;;;;42.70;22.13;;;;;;;0.78;78.23;102981.81;3588038;40;20082;-62
2022/01/11 06:49:01;;;;;;;40.53;21.75;;;;;;;0.77;78.28;102986.22;3588051;40;20391;-62
2022/01/11 06:51:27;;;;;;;37.78;20.40;;;;;;;0.75;78.84;102993.25;3584067;39;20049;-62
2022/01/11 06:53:53;;;;;;;42.13;22.33;;;;;;;0.73;78.11;102995.00;3586735;40;20078;-62
2022/01/11 06:56:20;;;;;;;40.70;20.83;;;;;;;0.73;78.79;102997.66;3585896;40;20052;-62
2022/01/11 06:58:46;;;;;;;42.58;21.45;;;;;;;0.68;78.33;102989.63;3586082;40;20052;-62
2022/01/11 07:01:11;;;;;;;44.45;23.02;;;;;;;0.63;78.03;102979.84;3585773;40;20052;-62
2022/01/11 07:03:37;;;;;;;38.75;20.70;;;;;;;0.71;79.20;102990.56;3584456;39;20064;-62
2022/01/11 07:06:03;;;;;;;48.95;25.55;;;;;;;0.68;78.13;102991.41;3586628;39;20100;-62
2022/01/11 07:08:29;;;;;;;42.17;22.05;;;;;;;0.66;78.91;102993.13;3585454;39;20157;-63
2022/01/11 07:10:55;;;;;;;42.92;21.88;;;;;;;0.69;79.01;102996.69;3587670;39;20059;-62
2022/01/11 07:13:21;;;;;;;44.17;23.05;;;;;;;0.67;78.57;102998.44;3585351;39;20560;-61
2022/01/11 07:15:46;;;;;;;45.90;22.95;;;;;;;0.66;78.74;103001.94;3588483;39;20048;-62
2022/01/11 07:18:12;;;;;;;44.05;22.63;;;;;;;0.65;79.22;103005.47;3588693;39;20048;-62
2022/01/11 07:20:42;;;;;;;47.60;24.45;;;;;;;0.66;79.50;103009.88;3584949;39;20172;-62
2022/01/11 07:23:08;;;;;;;49.90;24.83;;;;;;;0.56;78.80;102997.41;3586142;39;20048;-62
2022/01/11 07:25:35;;;;;;;47.95;23.83;;;;;;;0.64;78.10;103011.63;3584610;39;20059;-62
2022/01/11 07:28:02;;;;;;;49.70;24.73;;;;;;;0.55;78.98;103006.22;3586619;39;20121;-62
2022/01/11 07:30:28;;;;;;;51.55;25.55;;;;;;;0.62;78.29;103023.94;3586870;39;20094;-62
2022/01/11 07:32:54;;;;;;;51.13;25.88;;;;;;;0.61;79.34;103032.75;3590138;39;20378;-61
2022/01/11 07:35:20;;;;;;;46.08;24.50;;;;;;;0.60;78.04;103033.66;3586868;39;20075;-61
2022/01/11 07:37:45;;;;;;;53.15;24.98;;;;;;;0.63;78.94;103036.31;3591888;39;20044;-62
2022/01/11 07:40:12;;;;;;;47.58;24.27;;;;;;;0.60;78.13;103036.28;3590330;40;20055;-62
2022/01/11 07:42:38;;;;;;;46.42;22.90;;;;;;;0.61;78.92;103040.72;3588329;40;20067;-62
2022/01/11 07:45:04;;;;;;;47.30;23.27;;;;;;;0.63;78.83;103035.41;3589144;40;20302;-62
2022/01/11 07:47:30;;;;;;;43.92;22.58;;;;;;;0.65;78.19;103045.16;3590520;40;20137;-62
2022/01/11 07:49:56;;;;;;;42.55;23.85;;;;;;;0.66;78.35;103040.75;3591775;39;20382;-64
2022/01/11 07:52:21;;;;;;;42.35;22.33;;;;;;;0.65;78.10;103031.94;3585674;39;20303;-63
2022/01/11 07:54:47;;;;;;;41.78;21.92;;;;;;;0.76;78.72;103047.06;3588713;39;20044;-63
2022/01/11 07:57:13;;;;;;;41.47;21.00;;;;;;;0.77;78.38;103043.59;3583639;39;20048;-63
2022/01/11 07:59:39;;;;;;;41.80;21.80;;;;;;;0.80;78.27;103040.97;3586082;39;20052;-63
2022/01/11 08:02:05;;;;;;;43.40;21.70;;;;;;;0.85;78.14;103050.75;3587428;40;20048;-63
2022/01/11 08:04:31;;;;;;;38.08;20.20;;;;;;;0.89;77.96;103047.28;3584927;40;20048;-63
2022/01/11 08:06:58;;;;;;;40.30;21.50;;;;;;;0.93;78.02;103045.56;3584464;40;20058;-63
2022/01/11 08:09:25;;;;;;;33.15;19.90;;;;;;;0.99;77.85;103044.78;3584605;40;20368;-64
2022/01/11 08:11:51;;;;;;;42.13;21.67;;;;;;;1.01;77.36;103049.19;3584323;40;20096;-65
2022/01/11 08:14:17;;;;;;;39.63;21.02;;;;;;;1.05;77.61;103044.88;3589511;40;20048;-63
2022/01/11 08:16:43;;;;;;;40.38;19.42;;;;;;;0.90;77.56;103025.22;3585290;40;20056;-63
2022/01/11 08:19:09;;;;;;;38.65;20.88;;;;;;;1.11;77.07;103051.13;3586699;40;20048;-64
2022/01/11 08:21:35;;;;;;;35.08;20.05;;;;;;;1.18;77.42;103051.22;3585193;40;20109;-64
2022/01/11 08:24:00;;;;;;;38.38;19.23;;;;;;;1.20;76.86;103049.44;3586440;39;20394;-64
2022/01/11 08:26:26;;;;;;;35.92;20.40;;;;;;;1.27;76.61;103046.91;3584891;39;20056;-64
2022/01/11 08:28:51;;;;;;;35.50;20.05;;;;;;;1.29;76.64;103046.91;3587320;39;20135;-64
2022/01/11 08:31:17;;;;;;;33.58;20.33;;;;;;;1.31;76.09;103042.53;3584171;39;20051;-63
2022/01/11 08:33:43;;;;;;;37.40;18.77;;;;;;;1.36;76.31;103039.09;3586311;39;20374;-63
2022/01/11 08:36:08;;;;;;;37.45;20.17;;;;;;;1.52;76.19;103053.41;3585413;39;20128;-64
2022/01/11 08:38:35;;;;;;;33.30;18.25;;;;;;;1.55;75.63;103041.91;3580736;39;20068;-63
2022/01/11 08:41:01;;;;;;;33.05;19.33;;;;;;;1.62;75.98;103049.97;3584596;39;20396;-64
2022/01/11 08:43:27;;;;;;;31.45;17.92;;;;;;;1.70;75.29;103051.81;3583394;39;20052;-64
2022/01/11 08:45:53;;;;;;;34.60;18.83;;;;;;;1.32;75.44;102964.81;3619969;22;20095;-62
2022/01/11 08:48:18;;;;;;;32.30;18.27;;;;;;;1.72;74.60;103032.41;3592541;40;20071;-63
2022/01/11 08:50:44;;;;;;;34.25;18.67;;;;;;;1.90;75.74;103049.34;3589559;40;20052;-62
2022/01/11 08:53:09;;;;;;;30.33;18.00;;;;;;;1.97;74.64;103046.78;3591826;40;20052;-65
2022/01/11 08:55:35;;;;;;;34.05;18.65;;;;;;;2.01;74.05;103045.94;3593580;40;20310;-65
2022/01/11 08:58:01;;;;;;;33.30;18.35;;;;;;;2.06;74.11;103045.97;3581402;40;20061;-64
2022/01/11 09:00:26;;;;;;;32.08;16.33;;;;;;;2.12;74.11;103051.34;3570263;40;20049;-63
2022/01/11 09:02:52;;;;;;;28.90;17.02;;;;;;;2.11;73.09;103038.97;3583331;40;20052;-63
2022/01/11 09:05:21;;;;;;;31.38;17.83;;;;;;;2.22;73.25;103062.91;3573825;40;20084;-64
2022/01/11 09:07:49;;;;;;;32.70;18.10;;;;;;;2.32;73.77;103075.41;3579777;40;20056;-63
2022/01/11 09:10:15;;;;;;;31.95;18.17;;;;;;;2.37;73.58;103080.75;3581499;40;20047;-64
2022/01/11 09:12:41;;;;;;;30.70;18.23;;;;;;;2.40;73.13;103076.34;3581372;40;20064;-64
2022/01/11 09:15:10;;;;;;;34.95;19.10;;;;;;;2.49;74.02;103071.13;3578557;40;20049;-65
2022/01/11 09:17:37;;;;;;;31.95;17.42;;;;;;;2.54;73.66;103072.06;3579971;40;20072;-63
2022/01/11 09:20:07;;;;;;;29.50;17.02;;;;;;;2.64;73.14;103073.00;3571435;40;20288;-65
2022/01/11 09:22:33;;;;;;;30.33;17.83;;;;;;;2.68;73.56;103071.25;3579988;40;20072;-64
2022/01/11 09:24:59;;;;;;;29.60;16.83;;;;;;;2.78;72.80;103075.75;3579535;40;20052;-63
2022/01/11 09:27:25;;;;;;;27.42;15.68;;;;;;;2.83;71.88;103079.34;3580076;40;20059;-63
2022/01/11 09:29:51;;;;;;;29.80;16.17;;;;;;;2.87;71.58;103078.47;3581701;40;20067;-62
2022/01/11 09:32:17;;;;;;;26.35;15.23;;;;;;;2.97;71.20;103074.97;3581351;40;20056;-62
2022/01/11 09:34:43;;;;;;;29.67;17.35;;;;;;;3.04;71.61;103078.56;3580177;40;20163;-63
2022/01/11 09:37:11;;;;;;;24.58;14.50;;;;;;;2.93;71.24;103053.72;3580075;40;20138;-62
2022/01/11 09:39:39;;;;;;;28.02;15.32;;;;;;;3.16;70.57;103083.06;3582270;40;20064;-63
2022/01/11 09:42:07;;;;;;;26.55;15.32;;;;;;;3.19;70.40;103086.63;3580566;40;20048;-61
2022/01/11 09:44:38;;;;;;;22.92;14.40;;;;;;;3.26;70.05;103085.75;3582626;40;21732;-62
2022/01/11 09:47:07;;;;;;;22.42;14.65;;;;;;;3.37;69.74;103077.84;3577881;40;20060;-62
2022/01/11 09:49:33;;;;;;;24.58;14.73;;;;;;;3.45;69.45;103069.91;3579395;40;20060;-62
2022/01/11 09:52:02;;;;;;;21.88;13.95;;;;;;;3.66;69.37;103085.06;3580853;40;20391;-63
2022/01/11 09:54:27;;;;;;;21.45;14.02;;;;;;;3.77;69.28;103083.31;3581437;40;20052;-63
2022/01/11 09:56:53;;;;;;;25.02;14.65;;;;;;;3.93;68.26;103106.44;3578701;40;20049;-62
2022/01/11 09:59:19;;;;;;;23.65;14.13;;;;;;;3.86;67.43;103078.00;3577649;40;20067;-63
2022/01/11 10:01:44;;;;;;;23.83;13.98;;;;;;;3.92;68.32;103087.78;3574808;40;20057;-62
2022/01/11 10:04:18;;;;;;;21.17;13.15;;;;;;;3.92;68.27;103078.03;3580679;40;20040;-64
2022/01/11 10:06:57;;;;;;;25.75;15.00;;;;;;;4.03;67.10;103087.78;3578938;40;20056;-63
2022/01/11 10:09:29;;;;;;;22.08;12.77;;;;;;;4.19;67.81;103097.59;3578292;40;20060;-63
2022/01/11 10:11:58;;;;;;;20.98;13.00;;;;;;;4.29;66.78;103098.50;3579404;40;20048;-62
2022/01/11 10:14:25;;;;;;;22.48;12.80;;;;;;;4.32;66.96;103104.72;3582839;40;20373;-62
2022/01/11 10:17:27;;;;;;;22.73;13.05;;;;;;;4.29;66.71;103094.06;3580567;40;20138;-63
2022/01/11 10:20:04;;;;;;;23.23;13.30;;;;;;;4.33;67.18;103101.16;3581266;40;20059;-63
2022/01/11 10:22:30;;;;;;;24.92;13.00;;;;;;;4.29;66.22;103102.03;3578584;40;20499;-62
2022/01/11 10:25:00;;;;;;;20.70;12.80;;;;;;;4.31;66.84;103096.69;3583307;40;20359;-62
2022/01/11 10:27:36;;;;;;;21.88;13.60;;;;;;;4.31;67.26;103100.25;3582970;40;20310;-63
2022/01/11 10:30:07;;;;;;;25.25;15.25;;;;;;;4.33;66.74;103098.50;3583243;40;20052;-63
2022/01/11 10:32:39;;;;;;;25.48;14.98;;;;;;;4.33;66.33;103103.81;3578993;40;20116;-62
2022/01/11 10:35:23;;;;;;;22.40;13.00;;;;;;;4.35;66.31;103098.50;3578714;40;20404;-63
2022/01/11 10:38:00;;;;;;;;;;;;;;;4.38;67.04;103090.53;3580511;40;20092;-62
2022/01/11 10:40:36;;;;;;;19.13;11.45;;;;;;;4.42;66.51;103094.94;3580195;40;19940;-63
2022/01/11 10:43:17;;;;;;;20.77;12.40;;;;;;;4.48;67.31;103099.41;3582682;40;20052;-63
2022/01/11 10:45:49;;;;;;;23.42;12.90;;;;;;;4.48;67.79;103092.28;3577238;40;20453;-62
2022/01/11 10:48:27;;;;;;;20.10;12.10;;;;;;;4.48;66.93;103084.31;3580864;40;20118;-62
2022/01/11 10:50:59;;;;;;;21.98;13.48;;;;;;;4.64;67.27;103098.50;3571803;40;20121;-63
2022/01/11 10:53:40;;;;;;;19.55;11.95;;;;;;;4.68;66.97;103094.94;3580534;40;20136;-61
2022/01/11 10:56:08;;;;;;;16.23;11.45;;;;;;;4.66;66.45;103091.38;3580526;40;20061;-63
2022/01/11 10:58:36;;;;;;;19.10;11.57;;;;;;;4.79;65.88;103109.16;3580894;40;20134;-63
2022/01/11 11:01:06;;;;;;;20.52;11.60;;;;;;;4.83;66.42;103107.38;3583660;40;20051;-62
2022/01/11 11:03:34;;;;;;;17.73;10.93;;;;;;;4.83;66.23;103091.38;3584148;40;20091;-63
2022/01/11 11:06:10;;;;;;;18.10;11.63;;;;;;;4.94;66.56;103110.88;3571849;40;20055;-63
2022/01/11 11:08:48;;;;;;;20.92;11.90;;;;;;;5.03;66.25;103102.88;3579609;40;20061;-63
2022/01/11 11:11:23;;;;;;;19.27;11.25;;;;;;;5.02;65.68;103092.22;3581797;40;20052;-62
2022/01/11 11:13:51;;;;;;;21.02;11.80;;;;;;;5.07;65.92;103101.09;3583506;40;20357;-62
2022/01/11 11:16:29;;;;;;;18.23;11.18;;;;;;;5.05;65.60;103103.78;3582946;40;20087;-62
2022/01/11 11:19:01;;;;;;;30.30;16.70;;;;;;;5.06;66.43;103096.66;3581433;40;20061;-62
2022/01/11 11:21:40;;;;;;;20.38;10.75;;;;;;;5.09;65.83;103104.66;3580416;40;20044;-62